AirNav   Everest Fuels
 
 931 users online  

99FD Heli-Tech Inc Heliport
Panama City, Florida, USA

GOING TO PANAMA CITY?


FAA INFORMATION EFFECTIVE 16 JULY 2020

Location

FAA Identifier: 99FD
Lat/Long: 30-12-40.7230N 085-41-29.7440W
30-12.678717N 085-41.495733W
30.2113119,-85.6915956
(estimated)
Elevation: 10 ft. / 3 m (estimated)
Variation: 01W (1990)
From city: 3 miles SE of PANAMA CITY, FL
Time zone: UTC -5 (UTC -6 during Standard Time)
Zip code: 32405

Heliport Operations

Heliport use: Private use. Permission required prior to landing
Activation date: 04/1993
Control tower: no
ARTCC: JACKSONVILLE CENTER
FSS: GAINESVILLE FLIGHT SERVICE STATION
Attendance: MON-FRI 0800-1700
Wind indicator: yes
Segmented circle: no

Heliport Communications

WX ASOS at ECP (10 nm NW): 119.975 (850-235-7857)

Nearby radio navigation aids

NDB name  Hdg/Dist  Freq  Var  ID
LYNNE150/8.427804WPFN .--. ..-. -.

Heliport Services

Runway Information

Helipad H1

Dimensions: 30 x 30 ft. / 9 x 9 m
Surface: turf, in good condition
Traffic pattern: leftleft

Heliport Ownership and Management from official FAA records

Ownership: Privately-owned
Owner: HELI-TECH INC
3621 FRANKFORD AVE
PANAMA CITY, FL 32405
Phone 850-763-9000
Manager: KEN THRASHER
HELI-TECH INC, 3621 FRANKFORD AVE
PANAMA CITY, FL 32405
Phone 850-763-9000

Additional Remarks

A52-H1 30 FT PLINE INVOF LDG PAD.
FOR CD CTC TYNDALL APCH AT 850-283-2900 OR 850-283-3353, WHEN APCH CLSD CTC JACKSONVILLE ARTCC AT 904-845-1592.

Instrument Procedures

There are no published instrument procedures at 99FD.

Some nearby airports with instrument procedures:

KECP - Northwest Florida Beaches International Airport (10 nm NW)
KPAM - Tyndall Air Force Base (10 nm SE)
1J0 - Tri-County Airport (38 nm N)
54J - DeFuniak Springs Airport (39 nm NW)
KDTS - Destin Executive Airport (42 nm W)
 
Loc | Ops | Rwys | IFR | FBO | Links
Com | Nav | Svcs | Stats | Notes

Continental Services
AirBoss

 
Area around 99FD (Heli-Tech Inc Heliport)
 
Road maps at: MapQuest Bing Google
 
Aerial photo
No photo
 
Sectional chart

 
Airport distance calculator
Flying to Heli-Tech Inc Heliport? Find the distance to fly.

From to 99FD

Sunrise and sunset
Times for 03-Aug-2020
 Local
(UTC-5)
 Zulu
(UTC)
Morning civil twilight05:3810:38
Sunrise06:0411:04
Sunset19:3300:33
Evening civil twilight19:5900:59

Current date and time
Zulu (UTC)  03-Aug-2020 12:27:30
Local (UTC-5)  03-Aug-2020 07:27:30
 
METAR
KECP 
10nm NW 
031153Z 30004KT 6SM BR CLR 24/24 A2993 RMK AO2 SLP144 T02440244 10267 20239 52008
KPAM 
11nm SE 
031156Z AUTO 00000KT 10SM CLR 26/24 A2992 RMK AO2 SLP135 T02590243 10271 20250 52007 $
KTDR 
13nm SE 
031156Z AUTO 32003KT 10SM CLR 25/24 A2993 RMK AO2 SLP139 T02530244 10267 20241 52007 $
TAF
KECP 
10nm NW 
031120Z 0312/0412 VRB03KT P6SM SKC FM031700 30005KT P6SM SKC
KPAM 
11nm SE 
031100Z 0311/0417 34006KT 9999 FEW050 QNH2991INS BECMG 0316/0317 25009KT 9999 FEW050 FEW150 QNH2991INS BECMG 0318/0319 25012G18KT 9999 FEW050 FEW150 QNH2990INS BECMG 0400/0401 27006KT 9999 SCT050 QNH2990INS TX32/0319Z TN25/0311Z
NOTAMs
Click for the latest NOTAMs
NOTAMs are issued by the DoD/FAA and will open in a separate window not controlled by AirNav.

 

 
 

Would you like to see your business listed on this page?

 If your business provides an interesting product or service to pilots, flight crews, aircraft, or users of the Heli-Tech Inc Heliport, you should consider listing it here.  To start the listing process, click on the button below
 
Add a business
 

Other Pages about Heli-Tech Inc Heliport

Update a link
 
Copyright © AirNav, LLC. All rights reserved. Privacy Policy  Contact